Forside
METAR-TAF:

METAR-TAF

Lufthavne :

Islay, Skotland

Breddekreds: 55-40-55N, længdekreds: 006-15-24W, højde: 16 m

Aktuelle vejr

Denne rapport blev lavet for 25 minutter siden, kl. 17:20 UTC
Vind 33 kt fra vest med vindstød på up til 44 kt
Temperatur 5°C
Fugtighed 87%
Tryk 999 hPa
Sigt: 8000 m
Nogle få skyer i en højde af 1600 ft, Cumulonimbus.
Spredte skyer i en højde af 2300 ft
byger i nærheden

METAR: EGPI 171720Z 26033G44KT 8000 VCSH FEW016CB SCT023 05/03 Q0999

Tid: 17:45 (17:45 UTC)

Vejrudsigter

Denne rapport blev lavet for 3 timer og 45 minutter siden, kl. 14:00 UTC
Foreløbig gælder fra 17 på 15 UTC til 17 på 19 UTC
Vind 20 kt fra vestsydvest med vindstød på up til 30 kt
Sigt 10 km eller mere
Spredte skyer i en højde af 2000 ft
Midlertidig
fra 17 på 15 UTC til 17 på 19 UTC
Vind 28 kt fra vest med vindstød på up til 40 kt
Sigt: 6000 m
Brudte skyer i en højde af 1200 ft, Cumulonimbus.
regnbyger, små hagl

TAF: EGPI 171400Z 1715/1719 25020G30KT 9999 SCT020 TEMPO 1715/1719 26028G40KT 6000 SHRAGS BKN012CB

Vejrobservationer og prognoser fra mere end 4000 lufthavne (METAR og TAF).

De gule og røde prikker repræsenterer de meteorologiske stationer.

Flyt musen over at se navnet på stationen.

Så klik over at se vejr observationer og prognoser.

At skifte det kort: Klik på de grønne knapper med et sort kors for at zoome ind; på den grønne knap med en bindestreg for at zoome ud; eller på de grønne pile for tilstødende kort.


METAR-TAF: